Time;durP1;ratioP1;P1;durP2;ratioP2;P2;SDS_P1;SDS_P2;PMS_P1;PMS_P2;Temp;Humidity;BMP_temperature;BMP_pressure;BME280_temperature;BME280_humidity;BME280_pressure;Samples;Min_cycle;Max_cycle;Signal;HPM_P1;HPM_P2
2021/12/03 00:02:28;;;;;;;8.10;5.50;;;;;;;5.06;63.68;95867.57;108100;1274;68620;-72
2021/12/03 00:05:00;;;;;;;6.50;4.90;;;;;;;5.04;63.90;95868.26;108066;1272;69097;-69
2021/12/03 00:07:29;;;;;;;6.20;5.00;;;;;;;5.01;64.20;95865.23;108102;1272;58922;-68
2021/12/03 00:09:58;;;;;;;6.70;4.10;;;;;;;4.97;64.14;95864.61;108180;1270;58906;-67
2021/12/03 00:12:27;;;;;;;5.90;4.80;;;;;;;4.96;64.22;95861.31;108136;1269;70810;-67
2021/12/03 00:14:56;;;;;;;5.60;4.00;;;;;;;4.94;64.41;95860.20;108186;1274;68845;-67
2021/12/03 00:17:26;;;;;;;6.10;4.80;;;;;;;4.92;64.32;95858.67;108064;1274;69434;-66
2021/12/03 00:19:55;;;;;;;6.90;5.50;;;;;;;4.91;64.62;95854.55;108012;1274;59137;-66
2021/12/03 00:22:25;;;;;;;6.60;4.70;;;;;;;4.90;64.72;95856.41;108047;1272;58973;-69
2021/12/03 00:24:54;;;;;;;5.60;4.00;;;;;;;4.88;64.85;95851.84;108128;1272;70806;-66
2021/12/03 00:27:24;;;;;;;6.20;4.70;;;;;;;4.89;64.80;95851.81;108101;1275;67889;-66
2021/12/03 00:29:53;;;;;;;6.90;5.30;;;;;;;4.88;64.86;95852.18;108048;1272;68674;-69
2021/12/03 00:32:23;;;;;;;4.90;3.60;;;;;;;4.87;65.04;95852.48;108051;1272;58947;-69
2021/12/03 00:34:52;;;;;;;8.70;6.10;;;;;;;4.87;64.96;95853.16;108072;1274;58960;-70
2021/12/03 00:37:22;;;;;;;5.80;4.40;;;;;;;4.87;65.08;95855.23;108088;1272;69959;-70
2021/12/03 00:39:51;;;;;;;8.10;5.50;;;;;;;4.88;64.93;95861.52;108072;1272;67868;-69
2021/12/03 00:42:21;;;;;;;7.70;5.60;;;;;;;4.90;65.10;95856.37;107713;1272;538668;-67
2021/12/03 00:44:53;;;;;;;7.60;5.10;;;;;;;4.91;65.21;95860.61;108064;1275;58976;-70
2021/12/03 00:47:23;;;;;;;5.50;4.10;;;;;;;4.93;65.14;95853.86;107963;1272;58907;-68
2021/12/03 00:49:53;;;;;;;6.60;4.20;;;;;;;4.97;65.10;95852.55;108067;1272;70715;-71
2021/12/03 00:52:25;;;;;;;5.20;3.90;;;;;;;4.99;65.09;95849.30;108126;1271;67887;-69
2021/12/03 00:54:54;;;;;;;6.00;4.20;;;;;;;5.01;65.12;95849.98;108094;1272;69387;-72
2021/12/03 00:57:23;;;;;;;6.30;4.90;;;;;;;5.02;65.56;95843.57;108112;1272;58960;-70
2021/12/03 00:59:53;;;;;;;5.10;3.70;;;;;;;5.04;65.33;95842.88;108072;1273;58967;-67
2021/12/03 01:02:23;;;;;;;;;;;;;;;5.07;65.20;95837.95;108055;1272;70192;-71
2021/12/03 01:04:53;;;;;;;5.10;3.60;;;;;;;5.10;65.39;95838.95;108077;1271;67932;-69
2021/12/03 01:07:22;;;;;;;6.80;4.00;;;;;;;5.14;65.01;95830.27;108110;1274;69480;-69
2021/12/03 01:09:52;;;;;;;4.50;3.80;;;;;;;5.17;64.94;95819.45;108064;1272;58945;-70
2021/12/03 01:12:22;;;;;;;5.40;3.70;;;;;;;5.22;64.69;95812.84;108126;1274;58901;-69
2021/12/03 01:14:53;;;;;;;5.70;3.80;;;;;;;5.29;64.51;95813.02;108155;1272;70746;-71
2021/12/03 01:17:22;;;;;;;6.50;4.70;;;;;;;5.33;64.44;95802.52;108191;1272;68591;-69
2021/12/03 01:19:52;;;;;;;5.70;3.60;;;;;;;5.38;64.40;95804.02;108101;1274;68706;-68
2021/12/03 01:22:21;;;;;;;5.60;3.40;;;;;;;5.41;64.75;95800.83;108025;1274;58954;-69
2021/12/03 01:24:51;;;;;;;5.30;4.00;;;;;;;5.43;65.55;95801.05;108159;1272;58901;-67
2021/12/03 01:27:20;;;;;;;6.10;4.80;;;;;;;5.47;64.24;95804.67;108140;1273;70624;-70
2021/12/03 01:29:49;;;;;;;5.70;4.10;;;;;;;5.55;64.11;95804.21;108075;1274;67774;-71
2021/12/03 01:32:19;;;;;;;;;;;;;;;5.66;63.79;95810.33;108140;1272;69512;-69
2021/12/03 01:34:49;;;;;;;5.90;3.50;;;;;;;5.77;63.24;95809.61;108100;1272;58903;-71
2021/12/03 01:37:19;;;;;;;5.40;3.70;;;;;;;5.85;63.03;95810.84;108103;1273;58967;-68
2021/12/03 01:39:48;;;;;;;5.40;3.80;;;;;;;5.93;62.85;95808.23;108106;1274;70092;-72
2021/12/03 01:42:18;;;;;;;4.60;3.10;;;;;;;6.00;62.77;95810.88;108053;1275;68416;-66
2021/12/03 01:44:47;;;;;;;4.20;3.50;;;;;;;6.15;61.90;95810.63;108154;1272;68626;-73
2021/12/03 01:47:17;;;;;;;4.30;3.10;;;;;;;6.28;61.58;95804.38;108112;1272;58841;-71
2021/12/03 01:49:47;;;;;;;5.70;3.20;;;;;;;6.36;61.56;95801.82;108134;1272;58973;-73
2021/12/03 01:52:16;;;;;;;4.50;2.90;;;;;;;6.44;61.39;95798.92;108112;1274;69660;-73
2021/12/03 01:54:47;;;;;;;5.10;2.80;;;;;;;6.51;61.25;95803.47;108118;1273;68581;-70
2021/12/03 01:57:17;;;;;;;4.20;3.00;;;;;;;6.55;61.22;95804.86;108028;1274;68837;-71
2021/12/03 01:59:46;;;;;;;4.60;3.50;;;;;;;6.58;61.44;95811.58;108104;1275;58974;-72
2021/12/03 02:02:16;;;;;;;6.00;3.00;;;;;;;6.59;61.64;95811.30;108164;1273;59219;-72
2021/12/03 02:04:46;;;;;;;5.40;3.40;;;;;;;6.61;61.19;95809.59;108085;1272;69769;-69
2021/12/03 02:07:16;;;;;;;4.40;3.50;;;;;;;6.66;60.67;95811.14;108178;1275;67821;-73
2021/12/03 02:09:47;;;;;;;3.40;2.90;;;;;;;6.65;60.89;95804.92;108049;1275;68573;-70
2021/12/03 02:12:17;;;;;;;4.20;2.90;;;;;;;6.66;61.14;95805.42;108132;1274;58957;-69
2021/12/03 02:14:46;;;;;;;4.10;3.30;;;;;;;6.66;61.20;95805.23;108112;1272;58939;-70
2021/12/03 02:17:16;;;;;;;6.10;3.30;;;;;;;6.69;61.05;95808.31;107943;1273;70756;-69
2021/12/03 02:19:48;;;;;;;3.90;2.90;;;;;;;6.71;60.76;95808.64;108188;1272;67839;-68
2021/12/03 02:22:18;;;;;;;5.80;3.80;;;;;;;6.74;60.66;95812.33;108174;1273;69328;-69
2021/12/03 02:24:48;;;;;;;;;;;;;;;6.77;60.71;95802.90;108087;1272;59018;-67
2021/12/03 02:27:18;;;;;;;3.90;3.10;;;;;;;6.75;60.91;95795.98;108161;1274;58846;-70
2021/12/03 02:29:48;;;;;;;4.10;3.30;;;;;;;6.76;60.56;95795.73;108092;1274;70633;-73
2021/12/03 02:32:17;;;;;;;4.10;3.30;;;;;;;6.75;60.75;95799.29;108077;1275;68635;-70
2021/12/03 02:34:47;;;;;;;5.60;3.30;;;;;;;6.76;60.69;95802.51;108084;1275;68636;-67
2021/12/03 02:37:16;;;;;;;3.30;3.00;;;;;;;6.77;60.74;95803.83;108042;1272;58891;-73
2021/12/03 02:39:46;;;;;;;4.20;3.20;;;;;;;6.79;60.71;95798.06;108057;1272;58878;-72
2021/12/03 02:42:15;;;;;;;4.80;3.70;;;;;;;6.81;60.63;95800.50;108116;1272;70142;-68
2021/12/03 02:44:45;;;;;;;4.40;3.60;;;;;;;6.81;60.82;95799.32;108140;1272;67658;-70
2021/12/03 02:47:15;;;;;;;5.80;4.00;;;;;;;6.80;60.82;95799.36;108068;1272;68415;-70
2021/12/03 02:49:44;;;;;;;;;;;;;;;6.81;60.94;95800.33;108105;1275;58925;-67
2021/12/03 02:52:13;;;;;;;4.50;2.90;;;;;;;6.84;60.66;95800.25;108174;1272;58846;-67
2021/12/03 02:54:44;;;;;;;4.50;2.80;;;;;;;6.83;60.71;95798.39;108033;1275;69989;-72
2021/12/03 02:57:15;;;;;;;5.70;3.10;;;;;;;6.82;60.82;95792.98;108163;1274;68640;-71
2021/12/03 02:59:44;;;;;;;4.60;3.10;;;;;;;6.80;60.94;95791.05;108147;1274;69460;-73
2021/12/03 03:02:14;;;;;;;6.00;4.20;;;;;;;6.82;60.62;95788.48;108101;1270;58996;-70
2021/12/03 03:04:53;;;;;;;4.60;3.50;;;;;;;6.81;60.72;95787.67;108132;1272;58964;-71
2021/12/03 03:07:23;;;;;;;4.90;3.30;;;;;;;6.80;60.55;95784.16;108172;1274;70747;-69
2021/12/03 03:09:53;;;;;;;;;;;;;;;6.79;60.57;95786.29;108169;1272;67663;-72
2021/12/03 03:12:23;;;;;;;4.80;3.90;;;;;;;6.75;60.81;95784.55;108096;1273;69254;-70
2021/12/03 03:14:58;;;;;;;5.20;3.20;;;;;;;6.73;61.04;95785.21;108065;1272;58890;-73
2021/12/03 03:17:30;;;;;;;3.70;3.20;;;;;;;6.76;60.58;95786.17;108106;1271;59289;-74
2021/12/03 03:20:00;;;;;;;3.80;3.20;;;;;;;6.79;60.48;95786.31;108073;1274;70046;-66
2021/12/03 03:22:31;;;;;;;5.10;3.30;;;;;;;6.79;60.48;95778.38;108020;1272;68906;-68
2021/12/03 03:25:01;;;;;;;4.80;3.60;;;;;;;6.80;60.49;95777.03;108180;1274;68438;-71
2021/12/03 03:27:31;;;;;;;5.00;3.60;;;;;;;6.80;60.64;95774.27;108103;1272;58893;-70
2021/12/03 03:30:01;;;;;;;4.10;3.10;;;;;;;6.79;60.76;95774.86;108116;1272;58916;-69
2021/12/03 03:32:30;;;;;;;4.40;3.50;;;;;;;6.81;60.59;95772.48;108087;1272;70778;-72
2021/12/03 03:35:00;;;;;;;3.50;3.00;;;;;;;6.85;60.33;95771.64;108113;1273;68870;-68
2021/12/03 03:37:29;;;;;;;3.90;3.10;;;;;;;6.91;60.04;95764.32;108114;1272;68473;-68
2021/12/03 03:39:58;;;;;;;5.30;3.80;;;;;;;6.94;59.56;95759.11;108096;1274;59253;-71
2021/12/03 03:42:27;;;;;;;5.00;3.30;;;;;;;7.03;59.18;95751.41;108118;1273;58845;-69
2021/12/03 03:44:57;;;;;;;5.40;3.50;;;;;;;7.04;59.48;95747.16;108082;1272;69956;-70
2021/12/03 03:47:26;;;;;;;4.60;2.90;;;;;;;7.03;59.34;95747.61;108102;1275;67701;-70
2021/12/03 03:49:56;;;;;;;4.80;2.80;;;;;;;7.04;59.29;95757.39;108102;1274;69469;-67
2021/12/03 03:52:28;;;;;;;5.10;3.80;;;;;;;7.05;59.29;95767.35;108150;1272;58904;-68
2021/12/03 03:54:58;;;;;;;4.60;3.00;;;;;;;7.01;59.49;95769.23;108082;1272;58904;-69
2021/12/03 03:57:27;;;;;;;3.60;3.00;;;;;;;7.01;59.44;95767.32;108069;1275;70817;-67
2021/12/03 03:59:56;;;;;;;4.30;2.80;;;;;;;7.06;59.02;95766.50;108021;1272;68775;-70
2021/12/03 04:02:26;;;;;;;4.00;3.00;;;;;;;7.14;58.66;95766.17;108156;1272;69657;-72
2021/12/03 04:04:55;;;;;;;5.40;3.20;;;;;;;7.17;58.73;95767.17;108094;1272;58833;-73
2021/12/03 04:07:25;;;;;;;4.30;3.60;;;;;;;7.18;58.95;95773.72;108138;1272;58977;-72
2021/12/03 04:09:55;;;;;;;4.20;3.10;;;;;;;7.13;60.20;95774.57;108111;1272;70578;-72
2021/12/03 04:12:24;;;;;;;4.80;3.60;;;;;;;7.09;60.11;95775.81;108087;1273;68797;-71
2021/12/03 04:14:54;;;;;;;6.10;4.30;;;;;;;7.04;60.41;95779.70;108186;1275;69442;-67
2021/12/03 04:17:23;;;;;;;10.80;8.00;;;;;;;6.98;60.72;95780.59;108208;1275;58967;-66
2021/12/03 04:19:52;;;;;;;10.90;8.40;;;;;;;6.87;61.14;95783.60;108166;1272;58855;-69
2021/12/03 04:22:24;;;;;;;9.60;6.80;;;;;;;6.76;62.12;95786.17;108073;1275;71433;-67
2021/12/03 04:24:55;;;;;;;8.90;5.50;;;;;;;6.70;61.96;95792.11;108157;1272;68647;-69
2021/12/03 04:27:30;;;;;;;9.50;6.10;;;;;;;6.64;62.17;95797.60;108213;1275;69888;-66
2021/12/03 04:30:05;;;;;;;6.60;5.20;;;;;;;6.59;62.26;95793.67;108185;1272;59031;-66
2021/12/03 04:32:36;;;;;;;4.30;3.70;;;;;;;6.56;62.43;95797.57;108070;1275;58913;-66
2021/12/03 04:35:07;;;;;;;3.80;2.90;;;;;;;6.56;62.03;95803.94;108143;1274;69848;-73
2021/12/03 04:37:37;;;;;;;4.80;3.60;;;;;;;6.59;62.40;95805.05;108142;1272;68697;-73
2021/12/03 04:40:10;;;;;;;7.10;4.20;;;;;;;6.60;62.13;95801.04;108056;1275;69601;-72
2021/12/03 04:42:39;;;;;;;3.60;3.20;;;;;;;6.64;61.85;95799.35;108066;1275;59015;-68
2021/12/03 04:45:10;;;;;;;3.60;2.40;;;;;;;6.67;61.19;95798.38;108042;1272;58912;-71
2021/12/03 04:47:40;;;;;;;3.40;3.10;;;;;;;6.73;61.24;95794.77;108170;1275;70836;-71
2021/12/03 04:50:11;;;;;;;5.50;3.50;;;;;;;6.76;61.12;95795.55;108119;1273;68236;-72
2021/12/03 04:52:41;;;;;;;6.20;3.00;;;;;;;6.80;61.13;95794.06;108119;1273;68690;-70
2021/12/03 04:55:11;;;;;;;4.00;2.80;;;;;;;6.82;60.61;95793.19;108094;1274;59084;-72
2021/12/03 04:57:41;;;;;;;10.20;7.20;;;;;;;6.86;60.96;95795.73;108141;1274;58960;-70
2021/12/03 05:00:21;;;;;;;10.80;7.50;;;;;;;6.88;60.63;95796.92;108101;1272;70014;-68
2021/12/03 05:02:50;;;;;;;26.40;19.50;;;;;;;6.87;61.52;95794.62;108138;1274;68649;-70
2021/12/03 05:05:22;;;;;;;;;;;;;;;6.83;61.96;95792.77;108194;1272;69732;-69
2021/12/03 05:07:57;;;;;;;8.20;5.90;;;;;;;6.77;62.07;95794.91;108097;1272;59347;-69
2021/12/03 05:10:30;;;;;;;7.60;4.80;;;;;;;6.75;62.11;95789.45;108101;1273;58917;-70
2021/12/03 05:13:04;;;;;;;6.70;4.50;;;;;;;6.73;61.62;95791.83;108054;1273;70570;-72
2021/12/03 05:15:34;;;;;;;6.30;4.40;;;;;;;6.74;60.96;95788.27;108136;1275;67689;-70
2021/12/03 05:18:05;;;;;;;5.90;4.00;;;;;;;6.77;60.77;95784.95;108024;1272;67670;-67
2021/12/03 05:20:34;;;;;;;4.30;3.20;;;;;;;6.80;60.91;95787.45;107997;1275;58976;-67
2021/12/03 05:23:04;;;;;;;4.90;3.70;;;;;;;6.81;60.79;95790.30;108112;1275;58845;-68
2021/12/03 05:25:34;;;;;;;5.50;5.00;;;;;;;6.82;60.53;95785.16;108120;1272;70787;-71
2021/12/03 05:28:04;;;;;;;5.90;3.80;;;;;;;6.84;60.38;95784.12;108110;1270;68196;-67
2021/12/03 05:30:34;;;;;;;7.90;6.30;;;;;;;6.86;60.78;95791.29;108103;1272;69254;-71
2021/12/03 05:33:05;;;;;;;7.30;6.00;;;;;;;6.86;60.81;95798.02;108114;1272;58980;-72
2021/12/03 05:35:35;;;;;;;7.60;5.00;;;;;;;6.85;61.49;95796.75;108119;1275;58968;-72
2021/12/03 05:38:08;;;;;;;6.50;4.60;;;;;;;6.83;61.24;95790.98;108097;1274;70244;-73
2021/12/03 05:40:37;;;;;;;4.80;3.90;;;;;;;6.81;61.24;95789.09;108106;1275;68841;-67
2021/12/03 05:43:06;;;;;;;4.00;3.50;;;;;;;6.80;61.26;95791.27;108123;1273;68638;-71
2021/12/03 05:45:36;;;;;;;4.80;4.00;;;;;;;6.78;61.09;95793.49;108181;1274;58932;-68
2021/12/03 05:48:06;;;;;;;;;;;;;;;6.77;61.49;95789.91;108109;1275;58987;-71
2021/12/03 05:50:35;;;;;;;6.20;3.90;;;;;;;6.77;61.28;95787.21;108053;1272;70737;-72
2021/12/03 05:53:04;;;;;;;6.90;4.80;;;;;;;6.78;60.95;95786.77;108098;1274;69257;-68
2021/12/03 05:55:34;;;;;;;6.40;4.20;;;;;;;6.79;60.78;95789.38;108080;1272;68842;-69
2021/12/03 05:58:03;;;;;;;6.10;5.10;;;;;;;6.82;60.78;95795.28;108080;1274;59022;-71
2021/12/03 06:00:37;;;;;;;5.30;4.50;;;;;;;6.82;61.40;95796.99;107959;1275;58955;-71
2021/12/03 06:03:06;;;;;;;5.30;4.20;;;;;;;6.81;61.13;95796.14;108133;1272;71247;-68
2021/12/03 06:05:36;;;;;;;4.90;4.30;;;;;;;6.86;61.08;95797.67;108110;1272;67823;-73
2021/12/03 06:08:05;;;;;;;6.30;3.70;;;;;;;6.91;60.79;95804.16;108088;1273;69555;-73
2021/12/03 06:10:36;;;;;;;5.10;3.70;;;;;;;6.90;60.94;95809.48;108083;1274;59081;-72
2021/12/03 06:13:05;;;;;;;4.60;3.20;;;;;;;6.89;61.05;95815.05;108173;1272;58928;-71
2021/12/03 06:15:34;;;;;;;7.70;5.50;;;;;;;6.92;61.13;95819.52;108070;1272;70752;-72
2021/12/03 06:18:03;;;;;;;8.00;5.10;;;;;;;6.96;61.15;95825.43;108110;1274;67608;-69
2021/12/03 06:20:32;;;;;;;9.90;6.70;;;;;;;6.94;61.44;95826.45;108135;1273;70018;-72
2021/12/03 06:23:01;;;;;;;11.70;8.10;;;;;;;6.90;61.82;95831.83;108155;1273;58970;-72
2021/12/03 06:25:30;;;;;;;13.30;10.30;;;;;;;6.84;62.67;95832.96;108104;1272;58903;-70
2021/12/03 06:27:59;;;;;;;9.40;8.30;;;;;;;6.77;63.43;95832.14;108115;1274;70773;-73
2021/12/03 06:30:28;;;;;;;9.30;7.00;;;;;;;6.74;63.30;95830.56;108082;1273;67648;-72
2021/12/03 06:32:57;;;;;;;8.30;6.40;;;;;;;6.71;63.50;95829.05;108041;1272;68585;-72
2021/12/03 06:35:26;;;;;;;7.60;6.00;;;;;;;6.70;63.28;95826.73;107976;1274;58938;-70
2021/12/03 06:37:55;;;;;;;8.60;6.10;;;;;;;6.68;63.57;95828.56;107883;1272;58869;-70
2021/12/03 06:40:26;;;;;;;7.30;5.30;;;;;;;6.68;63.59;95844.55;108079;1273;71326;-70
2021/12/03 06:42:56;;;;;;;6.20;5.30;;;;;;;6.67;63.75;95842.89;108088;1272;67884;-68
2021/12/03 06:45:25;;;;;;;6.50;5.10;;;;;;;6.67;64.03;95845.67;107963;1275;68656;-68
2021/12/03 06:47:54;;;;;;;7.10;5.10;;;;;;;6.69;63.55;95849.11;108045;1272;58986;-71
2021/12/03 06:50:24;;;;;;;7.50;6.00;;;;;;;6.72;63.56;95847.33;107970;1272;58964;-67
2021/12/03 06:53:00;;;;;;;10.90;8.10;;;;;;;6.75;63.27;95845.55;108053;1272;70790;-70
2021/12/03 06:55:37;;;;;;;11.00;8.40;;;;;;;6.78;63.17;95846.62;108018;1272;68445;-71
2021/12/03 06:58:06;;;;;;;11.40;8.50;;;;;;;6.81;63.23;95849.17;107957;1276;69417;-69
2021/12/03 07:00:36;;;;;;;10.10;8.00;;;;;;;6.83;62.82;95855.73;108058;1272;58860;-71
2021/12/03 07:03:05;;;;;;;9.00;6.00;;;;;;;6.86;63.14;95859.11;108043;1275;58917;-71
2021/12/03 07:05:34;;;;;;;7.40;5.70;;;;;;;6.89;63.01;95863.42;108057;1275;71170;-68
2021/12/03 07:08:04;;;;;;;8.60;6.60;;;;;;;6.92;63.03;95870.24;108129;1272;67868;-69
2021/12/03 07:10:35;;;;;;;7.80;5.50;;;;;;;6.94;62.83;95871.52;108075;1272;69452;-67
2021/12/03 07:13:04;;;;;;;7.90;5.00;;;;;;;6.97;62.30;95871.56;108092;1272;58908;-70
2021/12/03 07:15:34;;;;;;;5.00;4.20;;;;;;;7.00;61.75;95877.17;108066;1275;58974;-69
2021/12/03 07:18:03;;;;;;;5.60;4.30;;;;;;;7.06;61.61;95881.75;108043;1275;70161;-68
2021/12/03 07:20:33;;;;;;;4.30;3.70;;;;;;;7.11;61.67;95882.88;107949;1273;68597;-71
2021/12/03 07:23:02;;;;;;;4.10;3.10;;;;;;;7.16;61.48;95881.90;107994;1275;68434;-70
2021/12/03 07:25:31;;;;;;;8.20;5.70;;;;;;;7.23;61.70;95887.46;108051;1272;58885;-69
2021/12/03 07:28:00;;;;;;;12.10;10.30;;;;;;;7.27;61.94;95889.90;108076;1275;58977;-67
2021/12/03 07:30:30;;;;;;;24.80;20.80;;;;;;;7.27;62.31;95896.34;108035;1271;70794;-67
2021/12/03 07:33:01;;;;;;;28.90;24.80;;;;;;;7.24;62.68;95900.90;108230;1272;67635;-67
2021/12/03 07:35:30;;;;;;;21.20;18.30;;;;;;;7.19;64.09;95894.73;108122;1272;69243;-68
2021/12/03 07:37:59;;;;;;;17.10;14.50;;;;;;;7.19;64.33;95901.64;108091;1272;58986;-67
2021/12/03 07:40:28;;;;;;;17.20;12.20;;;;;;;7.23;65.25;95906.13;108094;1274;58926;-67
2021/12/03 07:42:57;;;;;;;15.10;11.20;;;;;;;7.26;65.34;95904.30;108165;1273;70768;-67
2021/12/03 07:45:26;;;;;;;12.70;9.10;;;;;;;7.27;65.13;95910.53;108109;1274;68632;-67
2021/12/03 07:47:55;;;;;;;13.40;9.80;;;;;;;7.26;65.15;95912.97;108017;1272;68659;-69
2021/12/03 07:50:24;;;;;;;14.00;10.90;;;;;;;7.25;65.52;95919.63;108142;1274;58970;-69
2021/12/03 07:52:53;;;;;;;12.60;9.10;;;;;;;7.19;65.52;95926.59;108139;1272;58915;-69
2021/12/03 07:55:22;;;;;;;11.70;8.80;;;;;;;7.11;65.14;95932.96;108074;1275;69943;-71
2021/12/03 07:57:52;;;;;;;13.60;10.70;;;;;;;6.95;65.85;95936.01;108107;1275;68576;-71
2021/12/03 08:00:22;;;;;;;;;;;;;;;6.84;66.27;95939.27;108121;1271;68888;-69
2021/12/03 08:03:11;;;;;;;15.20;11.30;;;;;;;6.75;66.80;95950.80;108193;1269;58889;-69
2021/12/03 08:05:41;;;;;;;13.10;9.30;;;;;;;6.70;67.03;95959.30;108060;1272;58918;-69
2021/12/03 08:08:10;;;;;;;12.60;10.10;;;;;;;6.64;68.21;95964.98;108061;1273;70730;-68
2021/12/03 08:10:40;;;;;;;15.00;11.80;;;;;;;6.59;68.82;95972.86;108128;1273;68250;-71
2021/12/03 08:13:09;;;;;;;14.20;10.50;;;;;;;6.43;71.20;95972.73;108117;1272;68696;-71
2021/12/03 08:15:38;;;;;;;14.00;10.70;;;;;;;6.35;72.47;95977.61;108090;1273;58862;-71
2021/12/03 08:18:07;;;;;;;11.50;8.70;;;;;;;6.33;72.02;95984.36;108169;1274;58983;-69
2021/12/03 08:20:36;;;;;;;13.40;10.90;;;;;;;6.34;72.14;95994.34;108157;1273;70782;-68
2021/12/03 08:23:05;;;;;;;14.10;11.70;;;;;;;6.30;72.91;96000.88;108143;1275;67623;-70
2021/12/03 08:25:34;;;;;;;12.40;9.50;;;;;;;6.29;72.93;96008.96;108029;1272;68638;-70
2021/12/03 08:28:03;;;;;;;16.60;11.50;;;;;;;6.29;72.75;96012.88;107948;1269;58913;-67
2021/12/03 08:30:32;;;;;;;10.40;7.10;;;;;;;6.32;72.35;96016.86;108046;1275;58878;-67
2021/12/03 08:33:02;;;;;;;7.80;6.20;;;;;;;6.39;72.58;96016.67;108142;1274;70679;-68
2021/12/03 08:35:31;;;;;;;15.50;10.90;;;;;;;6.48;71.88;96014.56;108096;1272;68600;-67
2021/12/03 08:38:00;;;;;;;8.90;7.20;;;;;;;6.56;71.85;96014.05;108052;1275;69492;-67
2021/12/03 08:40:29;;;;;;;14.80;9.90;;;;;;;6.64;70.51;96020.17;108109;1273;59472;-67
2021/12/03 08:42:57;;;;;;;11.90;10.10;;;;;;;6.70;70.21;96025.09;107697;1270;58982;-68
2021/12/03 08:45:27;;;;;;;18.20;12.20;;;;;;;6.70;70.10;96029.27;108105;1270;71232;-68
2021/12/03 08:48:00;;;;;;;13.30;10.20;;;;;;;6.73;69.77;96031.48;108099;1273;68625;-70
2021/12/03 08:50:32;;;;;;;14.90;11.80;;;;;;;6.75;69.69;96031.81;108153;1270;69731;-67
2021/12/03 08:55:48;;;;;;;14.20;9.80;;;;;;;6.75;70.01;96036.82;108116;1272;58886;-67
2021/12/03 08:58:18;;;;;;;20.80;15.70;;;;;;;6.75;70.24;96039.97;107966;1272;70786;-66
2021/12/03 09:00:48;;;;;;;21.30;15.50;;;;;;;6.74;71.36;96046.05;108138;1272;68091;-66
2021/12/03 09:03:17;;;;;;;19.80;15.80;;;;;;;6.75;72.49;96048.10;108094;1272;69489;-66
2021/12/03 09:05:47;;;;;;;17.30;13.60;;;;;;;6.74;73.11;96055.27;108073;1273;59296;-68
2021/12/03 09:08:16;;;;;;;16.20;11.70;;;;;;;6.74;72.71;96053.66;108088;1272;58848;-68
2021/12/03 09:10:45;;;;;;;18.10;13.70;;;;;;;6.75;72.65;96054.64;108113;1272;70808;-67
2021/12/03 09:13:14;;;;;;;12.60;10.70;;;;;;;6.75;72.15;96056.74;108172;1270;67776;-68
2021/12/03 09:15:54;;;;;;;10.30;6.80;;;;;;;6.76;71.89;96065.00;108111;1271;70489;-66
2021/12/03 09:18:29;;;;;;;15.60;10.80;;;;;;;6.79;71.30;96070.62;108113;1273;58967;-66
2021/12/03 09:24:03;;;;;;;11.90;8.40;;;;;;;6.81;71.48;96082.19;108211;1272;70846;-68
2021/12/03 09:26:35;;;;;;;9.70;7.30;;;;;;;6.81;71.04;96081.86;108096;1272;68455;-66
2021/12/03 09:29:07;;;;;;;11.90;8.20;;;;;;;6.82;70.75;96090.47;108082;1272;70154;-68
2021/12/03 09:31:37;;;;;;;9.90;7.80;;;;;;;6.83;70.66;96095.71;108114;1272;58899;-66
2021/12/03 09:34:09;;;;;;;7.00;5.70;;;;;;;6.85;70.52;96100.94;108125;1272;58849;-66
2021/12/03 09:36:41;;;;;;;12.90;10.00;;;;;;;6.87;70.33;96099.45;108113;1272;70750;-67
2021/12/03 09:39:23;;;;;;;11.50;8.20;;;;;;;6.86;71.04;96099.33;108193;1272;66875;-68
2021/12/03 09:41:55;;;;;;;9.80;7.30;;;;;;;6.85;70.56;96098.56;107934;1275;69450;-69
2021/12/03 09:44:26;;;;;;;12.60;10.00;;;;;;;6.83;71.51;96103.55;108123;1272;58898;-69
2021/12/03 09:46:55;;;;;;;15.10;10.80;;;;;;;6.80;71.15;96108.95;108019;1272;58978;-67
2021/12/03 09:49:47;;;;;;;14.50;11.20;;;;;;;6.78;72.08;96114.54;108095;1272;69996;-68
2021/12/03 09:55:15;;;;;;;18.30;14.00;;;;;;;6.68;73.96;96109.59;107805;1272;68628;-67
2021/12/03 09:58:02;;;;;;;10.90;8.50;;;;;;;6.62;74.18;96112.77;108094;1271;58926;-70
2021/12/03 10:00:39;;;;;;;9.20;7.60;;;;;;;6.64;73.30;96124.91;108079;1272;58915;-67
2021/12/03 10:03:36;;;;;;;9.30;8.20;;;;;;;6.68;73.36;96128.79;108091;1272;70802;-67
2021/12/03 10:07:26;;;;;;;10.70;8.50;;;;;;;6.74;72.76;96135.44;108081;1272;68263;-67
2021/12/03 10:14:34;;;;;;;9.30;5.70;;;;;;;6.82;74.08;96143.92;108120;1272;58885;-67
2021/12/03 10:33:39;;;;;;;33.40;25.60;;;;;;;6.82;75.07;96163.86;108118;1270;66999;-67
2021/12/03 10:39:33;;;;;;;28.80;19.60;;;;;;;6.73;77.24;96184.34;108095;1272;58915;-66
2021/12/03 10:44:52;;;;;;;23.50;15.10;;;;;;;6.80;77.25;96203.54;108141;1271;71397;-66
2021/12/03 10:50:42;;;;;;;16.40;10.20;;;;;;;6.82;77.51;96214.48;108088;1272;69365;-65
2021/12/03 10:53:29;;;;;;;22.90;16.50;;;;;;;6.78;78.92;96221.52;108080;1272;58973;-66
2021/12/03 10:56:21;;;;;;;18.80;14.80;;;;;;;6.64;79.97;96222.59;108115;1272;59321;-66
2021/12/03 11:07:36;;;;;;;10.30;7.40;;;;;;;6.61;78.84;96237.34;108096;1272;58921;-66
2021/12/03 11:30:20;;;;;;;11.90;9.40;;;;;;;6.41;79.25;96275.88;108101;1273;67829;-70
2021/12/03 11:39:03;;;;;;;8.10;5.60;;;;;;;6.16;77.99;96289.16;107947;1272;58854;-70
2021/12/03 11:47:29;;;;;;;5.00;3.90;;;;;;;5.98;77.26;96302.02;108114;1273;69484;-71
2021/12/03 11:50:36;;;;;;;3.50;2.80;;;;;;;5.89;76.30;96311.30;108078;1272;58900;-69
2021/12/03 13:59:28;;;;;;;4.90;3.40;;;;;;;2.20;79.60;96583.83;108046;1272;58976;-68
2021/12/03 14:16:06;;;;;;;5.90;4.40;;;;;;;2.03;80.52;96625.13;108100;1272;70723;-70
2021/12/03 14:46:05;;;;;;;94.40;33.60;;;;;;;1.83;81.70;96687.13;108126;1270;67932;-72
2021/12/03 14:48:46;;;;;;;41.40;17.80;;;;;;;1.85;81.85;96677.27;108098;1272;69502;-72
2021/12/03 15:00:32;;;;;;;26.10;11.30;;;;;;;1.81;81.85;96694.98;107693;1276;67727;-67
2021/12/03 15:03:18;;;;;;;31.10;15.90;;;;;;;1.81;81.81;96706.45;107673;1277;69544;-71
2021/12/03 15:06:06;;;;;;;25.00;13.00;;;;;;;1.77;82.08;96714.04;107636;1278;58948;-72
2021/12/03 15:09:06;;;;;;;14.70;9.40;;;;;;;1.76;82.19;96720.45;107673;1278;59009;-71
2021/12/03 15:20:39;;;;;;;53.40;34.60;;;;;;;1.77;81.49;96747.89;107370;1284;59297;-71
2021/12/03 15:23:16;;;;;;;18.00;13.80;;;;;;;1.71;82.14;96744.90;107401;1280;59035;-71
2021/12/03 15:25:57;;;;;;;16.20;13.40;;;;;;;1.67;82.00;96760.73;107623;1275;69785;-70
2021/12/03 16:04:59;;;;;;;21.10;16.30;;;;;;;1.39;80.85;96812.02;108112;1272;58901;-72
2021/12/03 16:07:55;;;;;;;32.20;27.20;;;;;;;1.36;80.97;96815.06;108095;1272;70744;-69
2021/12/03 16:10:48;;;;;;;16.00;13.60;;;;;;;1.39;80.90;96816.33;108096;1272;67838;-71
2021/12/03 16:16:59;;;;;;;11.10;8.80;;;;;;;1.38;80.60;96821.19;108110;1272;58897;-72
2021/12/03 16:43:41;;;;;;;8.90;8.00;;;;;;;1.33;79.36;96857.64;108103;1272;59331;-69
2021/12/03 16:46:22;;;;;;;7.50;6.30;;;;;;;1.30;79.35;96872.52;108133;1272;58893;-71
2021/12/03 16:52:01;;;;;;;8.90;7.60;;;;;;;1.26;79.53;96888.66;108157;1272;69177;-70
2021/12/03 16:54:55;;;;;;;9.90;7.10;;;;;;;1.25;79.53;96901.23;108101;1272;69486;-70
2021/12/03 16:57:35;;;;;;;6.50;5.80;;;;;;;1.26;79.47;96909.77;108091;1272;58964;-71
2021/12/03 17:00:27;;;;;;;6.70;5.80;;;;;;;1.26;79.30;96907.86;108146;1272;58947;-72
2021/12/03 17:50:35;;;;;;;10.10;6.90;;;;;;;1.06;78.01;96991.66;108061;1272;69461;-70
2021/12/03 17:56:09;;;;;;;11.00;6.70;;;;;;;1.05;78.05;96999.26;108119;1271;58916;-69
2021/12/03 17:58:43;;;;;;;8.80;6.40;;;;;;;1.04;78.04;97002.75;108192;1272;69037;-67
2021/12/03 18:01:18;;;;;;;9.30;6.50;;;;;;;0.99;77.91;97002.21;108187;1272;68582;-68
2021/12/03 18:09:45;;;;;;;8.80;6.00;;;;;;;0.93;77.40;97013.99;108099;1272;58963;-71
2021/12/03 18:51:11;;;;;;;10.20;8.80;;;;;;;0.62;76.52;97018.14;107956;1272;58968;-68
2021/12/03 18:53:49;;;;;;;9.60;7.30;;;;;;;0.61;76.62;97019.23;107813;1272;69813;-70
2021/12/03 18:56:30;;;;;;;9.60;7.00;;;;;;;0.57;77.26;97023.66;107997;1274;68659;-72
2021/12/03 18:59:04;;;;;;;10.00;7.40;;;;;;;0.54;76.97;97024.30;107944;1275;68674;-68
2021/12/03 19:01:34;;;;;;;10.00;7.40;;;;;;;0.53;76.92;97024.33;108101;1271;58878;-71
2021/12/03 19:07:05;;;;;;;9.50;7.50;;;;;;;0.53;76.92;97029.64;108019;1271;71465;-67